sensor_id;sensor_type;location;lat;lon;timestamp;P1;durP1;ratioP1;P2;durP2;ratioP2
16179;SDS011;8196;49.428;10.906;2022-10-13T00:00:57;21.55;;;19.33;;
16179;SDS011;8196;49.428;10.906;2022-10-13T00:03:25;22.48;;;19.17;;
16179;SDS011;8196;49.428;10.906;2022-10-13T00:05:52;23.67;;;19.38;;
16179;SDS011;8196;49.428;10.906;2022-10-13T00:08:20;24.50;;;20.20;;
16179;SDS011;8196;49.428;10.906;2022-10-13T00:10:49;22.75;;;19.17;;
16179;SDS011;8196;49.428;10.906;2022-10-13T00:13:17;29.60;;;22.38;;
16179;SDS011;8196;49.428;10.906;2022-10-13T00:15:45;28.38;;;20.85;;
16179;SDS011;8196;49.428;10.906;2022-10-13T00:18:12;28.40;;;21.55;;
16179;SDS011;8196;49.428;10.906;2022-10-13T00:20:47;26.85;;;19.90;;
16179;SDS011;8196;49.428;10.906;2022-10-13T00:23:15;29.17;;;20.73;;
16179;SDS011;8196;49.428;10.906;2022-10-13T00:25:43;32.60;;;23.83;;
16179;SDS011;8196;49.428;10.906;2022-10-13T00:28:10;30.63;;;22.90;;
16179;SDS011;8196;49.428;10.906;2022-10-13T00:30:38;26.60;;;20.73;;
16179;SDS011;8196;49.428;10.906;2022-10-13T00:33:05;28.83;;;21.25;;
16179;SDS011;8196;49.428;10.906;2022-10-13T00:35:32;32.80;;;22.88;;
16179;SDS011;8196;49.428;10.906;2022-10-13T00:38:00;29.83;;;21.42;;
16179;SDS011;8196;49.428;10.906;2022-10-13T00:40:27;25.42;;;20.30;;
16179;SDS011;8196;49.428;10.906;2022-10-13T00:42:54;27.02;;;22.27;;
16179;SDS011;8196;49.428;10.906;2022-10-13T00:45:23;27.33;;;21.90;;
16179;SDS011;8196;49.428;10.906;2022-10-13T00:47:54;23.80;;;20.17;;
16179;SDS011;8196;49.428;10.906;2022-10-13T00:50:23;24.45;;;18.88;;
16179;SDS011;8196;49.428;10.906;2022-10-13T00:52:51;22.20;;;19.15;;
16179;SDS011;8196;49.428;10.906;2022-10-13T00:55:19;26.02;;;20.65;;
16179;SDS011;8196;49.428;10.906;2022-10-13T00:57:49;25.37;;;19.67;;
16179;SDS011;8196;49.428;10.906;2022-10-13T01:00:21;27.10;;;20.35;;
16179;SDS011;8196;49.428;10.906;2022-10-13T01:02:49;31.60;;;22.90;;
16179;SDS011;8196;49.428;10.906;2022-10-13T01:05:17;29.67;;;22.20;;
16179;SDS011;8196;49.428;10.906;2022-10-13T01:07:45;29.40;;;21.30;;
16179;SDS011;8196;49.428;10.906;2022-10-13T01:10:15;31.83;;;22.08;;
16179;SDS011;8196;49.428;10.906;2022-10-13T01:22:59;30.52;;;21.25;;
16179;SDS011;8196;49.428;10.906;2022-10-13T01:25:35;30.43;;;22.47;;
16179;SDS011;8196;49.428;10.906;2022-10-13T01:30:33;24.63;;;19.42;;
16179;SDS011;8196;49.428;10.906;2022-10-13T01:33:04;28.98;;;22.05;;
16179;SDS011;8196;49.428;10.906;2022-10-13T01:35:52;29.08;;;21.80;;
16179;SDS011;8196;49.428;10.906;2022-10-13T01:38:35;27.77;;;21.13;;
16179;SDS011;8196;49.428;10.906;2022-10-13T01:41:10;29.13;;;21.85;;
16179;SDS011;8196;49.428;10.906;2022-10-13T01:43:42;28.80;;;21.88;;
16179;SDS011;8196;49.428;10.906;2022-10-13T01:46:13;24.63;;;21.23;;
16179;SDS011;8196;49.428;10.906;2022-10-13T01:48:42;27.65;;;22.63;;
16179;SDS011;8196;49.428;10.906;2022-10-13T01:51:12;25.25;;;20.50;;
16179;SDS011;8196;49.428;10.906;2022-10-13T01:53:40;26.42;;;21.27;;
16179;SDS011;8196;49.428;10.906;2022-10-13T01:56:08;25.05;;;21.05;;
16179;SDS011;8196;49.428;10.906;2022-10-13T01:58:35;24.65;;;21.23;;
16179;SDS011;8196;49.428;10.906;2022-10-13T02:03:35;21.87;;;19.40;;
16179;SDS011;8196;49.428;10.906;2022-10-13T02:11:21;23.45;;;20.33;;
16179;SDS011;8196;49.428;10.906;2022-10-13T02:13:51;21.95;;;19.42;;
16179;SDS011;8196;49.428;10.906;2022-10-13T02:16:19;21.17;;;18.88;;
16179;SDS011;8196;49.428;10.906;2022-10-13T02:18:48;20.37;;;18.00;;
16179;SDS011;8196;49.428;10.906;2022-10-13T02:21:16;20.95;;;18.75;;
16179;SDS011;8196;49.428;10.906;2022-10-13T02:23:44;20.08;;;18.02;;
16179;SDS011;8196;49.428;10.906;2022-10-13T02:26:11;20.98;;;18.35;;
16179;SDS011;8196;49.428;10.906;2022-10-13T02:28:39;21.13;;;18.88;;
16179;SDS011;8196;49.428;10.906;2022-10-13T02:31:06;21.90;;;18.85;;
16179;SDS011;8196;49.428;10.906;2022-10-13T02:33:34;21.92;;;18.88;;
16179;SDS011;8196;49.428;10.906;2022-10-13T02:36:01;20.47;;;18.23;;
16179;SDS011;8196;49.428;10.906;2022-10-13T02:38:28;17.90;;;16.00;;
16179;SDS011;8196;49.428;10.906;2022-10-13T02:40:56;17.50;;;15.73;;
16179;SDS011;8196;49.428;10.906;2022-10-13T02:43:23;19.65;;;17.65;;
16179;SDS011;8196;49.428;10.906;2022-10-13T02:45:50;20.52;;;17.77;;
16179;SDS011;8196;49.428;10.906;2022-10-13T02:48:17;21.50;;;18.25;;
16179;SDS011;8196;49.428;10.906;2022-10-13T02:50:45;21.15;;;18.70;;
16179;SDS011;8196;49.428;10.906;2022-10-13T02:53:12;23.55;;;19.48;;
16179;SDS011;8196;49.428;10.906;2022-10-13T02:55:39;22.88;;;18.30;;
16179;SDS011;8196;49.428;10.906;2022-10-13T02:58:07;22.17;;;18.07;;
16179;SDS011;8196;49.428;10.906;2022-10-13T03:00:34;25.88;;;19.75;;
16179;SDS011;8196;49.428;10.906;2022-10-13T03:03:01;22.98;;;19.15;;
16179;SDS011;8196;49.428;10.906;2022-10-13T03:05:28;26.30;;;20.10;;
16179;SDS011;8196;49.428;10.906;2022-10-13T03:07:55;23.83;;;19.77;;
16179;SDS011;8196;49.428;10.906;2022-10-13T03:10:22;25.30;;;19.92;;
16179;SDS011;8196;49.428;10.906;2022-10-13T03:12:49;24.25;;;20.00;;
16179;SDS011;8196;49.428;10.906;2022-10-13T03:15:16;23.95;;;19.90;;
16179;SDS011;8196;49.428;10.906;2022-10-13T03:17:43;23.85;;;18.58;;
16179;SDS011;8196;49.428;10.906;2022-10-13T03:20:11;23.23;;;19.30;;
16179;SDS011;8196;49.428;10.906;2022-10-13T03:22:38;22.63;;;18.23;;
16179;SDS011;8196;49.428;10.906;2022-10-13T03:25:05;20.75;;;17.92;;
16179;SDS011;8196;49.428;10.906;2022-10-13T03:27:32;20.98;;;18.27;;
16179;SDS011;8196;49.428;10.906;2022-10-13T03:29:59;22.02;;;18.58;;
16179;SDS011;8196;49.428;10.906;2022-10-13T03:32:28;20.23;;;17.63;;
16179;SDS011;8196;49.428;10.906;2022-10-13T03:34:56;19.83;;;17.42;;
16179;SDS011;8196;49.428;10.906;2022-10-13T03:37:23;22.17;;;17.95;;
16179;SDS011;8196;49.428;10.906;2022-10-13T03:39:50;23.50;;;19.40;;
16179;SDS011;8196;49.428;10.906;2022-10-13T03:42:17;22.97;;;18.47;;
16179;SDS011;8196;49.428;10.906;2022-10-13T03:44:46;21.58;;;18.08;;
16179;SDS011;8196;49.428;10.906;2022-10-13T03:47:20;22.73;;;18.17;;
16179;SDS011;8196;49.428;10.906;2022-10-13T03:49:47;23.85;;;18.85;;
16179;SDS011;8196;49.428;10.906;2022-10-13T03:52:14;24.07;;;19.63;;
16179;SDS011;8196;49.428;10.906;2022-10-13T03:54:42;23.27;;;18.42;;
16179;SDS011;8196;49.428;10.906;2022-10-13T03:57:09;21.63;;;18.07;;
16179;SDS011;8196;49.428;10.906;2022-10-13T03:59:38;22.83;;;17.90;;
16179;SDS011;8196;49.428;10.906;2022-10-13T04:02:06;23.73;;;18.98;;
16179;SDS011;8196;49.428;10.906;2022-10-13T04:04:33;23.08;;;18.65;;
16179;SDS011;8196;49.428;10.906;2022-10-13T04:07:00;23.10;;;19.35;;
16179;SDS011;8196;49.428;10.906;2022-10-13T04:09:27;22.80;;;19.67;;
16179;SDS011;8196;49.428;10.906;2022-10-13T04:11:54;23.10;;;18.80;;
16179;SDS011;8196;49.428;10.906;2022-10-13T04:14:21;23.83;;;18.88;;
16179;SDS011;8196;49.428;10.906;2022-10-13T04:16:48;23.70;;;18.93;;
16179;SDS011;8196;49.428;10.906;2022-10-13T04:19:16;21.00;;;17.65;;
16179;SDS011;8196;49.428;10.906;2022-10-13T04:21:43;23.25;;;17.98;;
16179;SDS011;8196;49.428;10.906;2022-10-13T04:24:10;22.95;;;18.48;;
16179;SDS011;8196;49.428;10.906;2022-10-13T04:26:38;20.92;;;17.35;;
16179;SDS011;8196;49.428;10.906;2022-10-13T04:29:06;20.95;;;17.77;;
16179;SDS011;8196;49.428;10.906;2022-10-13T04:31:34;20.40;;;18.10;;
16179;SDS011;8196;49.428;10.906;2022-10-13T04:34:02;20.40;;;18.00;;
16179;SDS011;8196;49.428;10.906;2022-10-13T04:36:29;19.77;;;17.05;;
16179;SDS011;8196;49.428;10.906;2022-10-13T04:38:56;22.42;;;18.30;;
16179;SDS011;8196;49.428;10.906;2022-10-13T04:41:23;20.45;;;17.15;;
16179;SDS011;8196;49.428;10.906;2022-10-13T04:43:51;20.83;;;17.88;;
16179;SDS011;8196;49.428;10.906;2022-10-13T04:46:20;19.42;;;16.92;;
16179;SDS011;8196;49.428;10.906;2022-10-13T04:48:48;19.60;;;17.02;;
16179;SDS011;8196;49.428;10.906;2022-10-13T04:51:17;21.73;;;17.92;;
16179;SDS011;8196;49.428;10.906;2022-10-13T04:53:44;23.75;;;18.90;;
16179;SDS011;8196;49.428;10.906;2022-10-13T04:56:12;20.92;;;17.95;;
16179;SDS011;8196;49.428;10.906;2022-10-13T04:58:40;21.95;;;18.00;;
16179;SDS011;8196;49.428;10.906;2022-10-13T05:01:11;18.88;;;16.50;;
16179;SDS011;8196;49.428;10.906;2022-10-13T05:03:45;21.00;;;17.00;;
16179;SDS011;8196;49.428;10.906;2022-10-13T05:06:13;21.08;;;16.95;;
16179;SDS011;8196;49.428;10.906;2022-10-13T05:08:41;18.92;;;16.88;;
16179;SDS011;8196;49.428;10.906;2022-10-13T05:11:08;21.50;;;17.20;;
16179;SDS011;8196;49.428;10.906;2022-10-13T05:13:35;19.58;;;17.17;;
16179;SDS011;8196;49.428;10.906;2022-10-13T05:16:06;22.02;;;18.15;;
16179;SDS011;8196;49.428;10.906;2022-10-13T05:18:33;21.92;;;18.13;;
16179;SDS011;8196;49.428;10.906;2022-10-13T05:21:09;19.38;;;17.27;;
16179;SDS011;8196;49.428;10.906;2022-10-13T05:23:36;22.98;;;18.00;;
16179;SDS011;8196;49.428;10.906;2022-10-13T05:26:05;25.13;;;18.33;;
16179;SDS011;8196;49.428;10.906;2022-10-13T05:28:32;20.67;;;17.10;;
16179;SDS011;8196;49.428;10.906;2022-10-13T05:31:07;20.13;;;16.63;;
16179;SDS011;8196;49.428;10.906;2022-10-13T05:33:35;18.13;;;15.95;;
16179;SDS011;8196;49.428;10.906;2022-10-13T05:36:03;18.35;;;15.98;;
16179;SDS011;8196;49.428;10.906;2022-10-13T05:38:30;17.88;;;15.95;;
16179;SDS011;8196;49.428;10.906;2022-10-13T05:41:01;19.67;;;16.75;;
16179;SDS011;8196;49.428;10.906;2022-10-13T05:43:29;18.35;;;16.38;;
16179;SDS011;8196;49.428;10.906;2022-10-13T05:45:57;18.35;;;16.40;;
16179;SDS011;8196;49.428;10.906;2022-10-13T05:48:24;19.20;;;16.80;;
16179;SDS011;8196;49.428;10.906;2022-10-13T05:50:51;19.13;;;16.98;;
16179;SDS011;8196;49.428;10.906;2022-10-13T05:53:18;19.48;;;16.17;;
16179;SDS011;8196;49.428;10.906;2022-10-13T05:55:48;21.07;;;16.53;;
16179;SDS011;8196;49.428;10.906;2022-10-13T05:58:16;20.30;;;17.05;;
16179;SDS011;8196;49.428;10.906;2022-10-13T06:00:43;19.65;;;16.67;;
16179;SDS011;8196;49.428;10.906;2022-10-13T06:03:12;19.58;;;17.48;;
16179;SDS011;8196;49.428;10.906;2022-10-13T06:05:40;21.83;;;18.40;;
16179;SDS011;8196;49.428;10.906;2022-10-13T06:08:10;23.65;;;18.75;;
16179;SDS011;8196;49.428;10.906;2022-10-13T06:10:37;22.33;;;18.40;;
16179;SDS011;8196;49.428;10.906;2022-10-13T06:13:04;20.30;;;17.50;;
16179;SDS011;8196;49.428;10.906;2022-10-13T06:15:31;21.45;;;17.80;;
16179;SDS011;8196;49.428;10.906;2022-10-13T06:17:59;21.73;;;18.50;;
16179;SDS011;8196;49.428;10.906;2022-10-13T06:20:26;20.98;;;17.65;;
16179;SDS011;8196;49.428;10.906;2022-10-13T06:22:54;22.55;;;17.30;;
16179;SDS011;8196;49.428;10.906;2022-10-13T06:25:21;21.00;;;18.20;;
16179;SDS011;8196;49.428;10.906;2022-10-13T06:27:48;22.52;;;19.05;;
16179;SDS011;8196;49.428;10.906;2022-10-13T06:30:15;23.38;;;19.00;;
16179;SDS011;8196;49.428;10.906;2022-10-13T06:32:42;24.20;;;19.40;;
16179;SDS011;8196;49.428;10.906;2022-10-13T06:35:09;24.97;;;20.73;;
16179;SDS011;8196;49.428;10.906;2022-10-13T06:37:37;23.73;;;20.02;;
16179;SDS011;8196;49.428;10.906;2022-10-13T06:40:04;22.98;;;19.83;;
16179;SDS011;8196;49.428;10.906;2022-10-13T06:42:31;24.27;;;19.80;;
16179;SDS011;8196;49.428;10.906;2022-10-13T06:45:00;24.60;;;19.95;;
16179;SDS011;8196;49.428;10.906;2022-10-13T06:47:27;25.13;;;20.57;;
16179;SDS011;8196;49.428;10.906;2022-10-13T06:49:54;24.60;;;20.40;;
16179;SDS011;8196;49.428;10.906;2022-10-13T06:52:21;22.92;;;19.60;;
16179;SDS011;8196;49.428;10.906;2022-10-13T06:54:48;23.08;;;19.25;;
16179;SDS011;8196;49.428;10.906;2022-10-13T06:57:15;24.77;;;21.20;;
16179;SDS011;8196;49.428;10.906;2022-10-13T06:59:42;25.45;;;19.58;;
16179;SDS011;8196;49.428;10.906;2022-10-13T07:02:09;23.67;;;20.00;;
16179;SDS011;8196;49.428;10.906;2022-10-13T07:04:37;23.48;;;19.67;;
16179;SDS011;8196;49.428;10.906;2022-10-13T07:07:04;23.00;;;19.52;;
16179;SDS011;8196;49.428;10.906;2022-10-13T07:09:31;23.75;;;18.95;;
16179;SDS011;8196;49.428;10.906;2022-10-13T07:11:58;23.45;;;18.55;;
16179;SDS011;8196;49.428;10.906;2022-10-13T07:14:25;21.77;;;18.02;;
16179;SDS011;8196;49.428;10.906;2022-10-13T07:16:52;22.52;;;19.45;;
16179;SDS011;8196;49.428;10.906;2022-10-13T07:19:19;21.33;;;17.95;;
16179;SDS011;8196;49.428;10.906;2022-10-13T07:21:46;20.08;;;17.63;;
16179;SDS011;8196;49.428;10.906;2022-10-13T07:24:13;20.92;;;18.33;;
16179;SDS011;8196;49.428;10.906;2022-10-13T07:26:40;21.75;;;18.67;;
16179;SDS011;8196;49.428;10.906;2022-10-13T07:29:08;20.13;;;17.47;;
16179;SDS011;8196;49.428;10.906;2022-10-13T07:31:35;19.57;;;17.30;;
16179;SDS011;8196;49.428;10.906;2022-10-13T07:34:02;19.02;;;16.92;;
16179;SDS011;8196;49.428;10.906;2022-10-13T07:36:30;19.08;;;16.65;;
16179;SDS011;8196;49.428;10.906;2022-10-13T07:38:59;19.50;;;17.40;;
16179;SDS011;8196;49.428;10.906;2022-10-13T07:41:26;18.85;;;16.85;;
16179;SDS011;8196;49.428;10.906;2022-10-13T07:43:55;18.08;;;16.17;;
16179;SDS011;8196;49.428;10.906;2022-10-13T07:46:22;20.10;;;16.85;;
16179;SDS011;8196;49.428;10.906;2022-10-13T07:48:51;20.80;;;17.60;;
16179;SDS011;8196;49.428;10.906;2022-10-13T07:51:19;21.60;;;18.38;;
16179;SDS011;8196;49.428;10.906;2022-10-13T07:53:46;19.90;;;17.33;;
16179;SDS011;8196;49.428;10.906;2022-10-13T07:56:14;20.23;;;17.60;;
16179;SDS011;8196;49.428;10.906;2022-10-13T07:58:43;21.17;;;17.35;;
16179;SDS011;8196;49.428;10.906;2022-10-13T08:01:10;20.65;;;17.73;;
16179;SDS011;8196;49.428;10.906;2022-10-13T08:03:38;20.08;;;17.52;;
16179;SDS011;8196;49.428;10.906;2022-10-13T08:06:09;21.15;;;17.50;;
16179;SDS011;8196;49.428;10.906;2022-10-13T08:08:36;20.90;;;18.27;;
16179;SDS011;8196;49.428;10.906;2022-10-13T08:11:06;22.10;;;18.02;;
16179;SDS011;8196;49.428;10.906;2022-10-13T08:13:36;19.83;;;17.30;;
16179;SDS011;8196;49.428;10.906;2022-10-13T08:16:03;20.50;;;18.30;;
16179;SDS011;8196;49.428;10.906;2022-10-13T08:18:30;20.30;;;17.25;;
16179;SDS011;8196;49.428;10.906;2022-10-13T08:21:00;21.35;;;18.38;;
16179;SDS011;8196;49.428;10.906;2022-10-13T08:23:47;20.75;;;18.10;;
16179;SDS011;8196;49.428;10.906;2022-10-13T08:26:19;20.15;;;17.85;;
16179;SDS011;8196;49.428;10.906;2022-10-13T08:28:46;21.07;;;18.20;;
16179;SDS011;8196;49.428;10.906;2022-10-13T08:31:34;20.67;;;18.20;;
16179;SDS011;8196;49.428;10.906;2022-10-13T08:34:01;21.03;;;17.93;;
16179;SDS011;8196;49.428;10.906;2022-10-13T08:36:28;21.42;;;18.85;;
16179;SDS011;8196;49.428;10.906;2022-10-13T08:38:55;21.05;;;18.25;;
16179;SDS011;8196;49.428;10.906;2022-10-13T08:41:23;21.20;;;18.42;;
16179;SDS011;8196;49.428;10.906;2022-10-13T08:43:52;21.52;;;18.85;;
16179;SDS011;8196;49.428;10.906;2022-10-13T08:46:45;19.52;;;17.42;;
16179;SDS011;8196;49.428;10.906;2022-10-13T08:49:13;22.88;;;19.70;;
16179;SDS011;8196;49.428;10.906;2022-10-13T08:51:41;23.55;;;19.75;;
16179;SDS011;8196;49.428;10.906;2022-10-13T08:54:10;24.40;;;19.20;;
16179;SDS011;8196;49.428;10.906;2022-10-13T08:56:40;21.17;;;18.20;;
16179;SDS011;8196;49.428;10.906;2022-10-13T08:59:09;21.45;;;18.60;;
16179;SDS011;8196;49.428;10.906;2022-10-13T09:01:39;23.97;;;19.10;;
16179;SDS011;8196;49.428;10.906;2022-10-13T09:06:43;21.57;;;18.27;;
16179;SDS011;8196;49.428;10.906;2022-10-13T09:09:12;21.45;;;18.08;;
16179;SDS011;8196;49.428;10.906;2022-10-13T09:11:42;21.17;;;17.92;;
16179;SDS011;8196;49.428;10.906;2022-10-13T09:14:11;21.00;;;17.92;;
16179;SDS011;8196;49.428;10.906;2022-10-13T09:16:40;22.02;;;17.92;;
16179;SDS011;8196;49.428;10.906;2022-10-13T09:19:11;21.08;;;17.83;;
16179;SDS011;8196;49.428;10.906;2022-10-13T09:21:38;19.83;;;17.30;;
16179;SDS011;8196;49.428;10.906;2022-10-13T09:24:06;20.02;;;16.90;;
16179;SDS011;8196;49.428;10.906;2022-10-13T09:26:37;21.13;;;17.27;;
16179;SDS011;8196;49.428;10.906;2022-10-13T09:29:06;21.73;;;17.10;;
16179;SDS011;8196;49.428;10.906;2022-10-13T09:31:34;22.50;;;16.95;;
16179;SDS011;8196;49.428;10.906;2022-10-13T09:37:01;19.13;;;16.25;;
16179;SDS011;8196;49.428;10.906;2022-10-13T09:39:29;18.88;;;15.48;;
16179;SDS011;8196;49.428;10.906;2022-10-13T09:44:44;17.00;;;15.15;;
16179;SDS011;8196;49.428;10.906;2022-10-13T09:47:19;18.55;;;15.73;;
16179;SDS011;8196;49.428;10.906;2022-10-13T09:49:57;18.08;;;15.98;;
16179;SDS011;8196;49.428;10.906;2022-10-13T09:52:32;19.35;;;16.00;;
16179;SDS011;8196;49.428;10.906;2022-10-13T09:54:59;19.30;;;15.20;;
16179;SDS011;8196;49.428;10.906;2022-10-13T09:57:43;20.50;;;16.10;;
16179;SDS011;8196;49.428;10.906;2022-10-13T10:00:13;18.60;;;15.23;;
16179;SDS011;8196;49.428;10.906;2022-10-13T10:02:45;18.30;;;15.47;;
16179;SDS011;8196;49.428;10.906;2022-10-13T10:05:17;19.48;;;15.60;;
16179;SDS011;8196;49.428;10.906;2022-10-13T10:07:44;18.80;;;15.50;;
16179;SDS011;8196;49.428;10.906;2022-10-13T10:10:15;19.10;;;15.70;;
16179;SDS011;8196;49.428;10.906;2022-10-13T10:12:47;20.63;;;15.97;;
16179;SDS011;8196;49.428;10.906;2022-10-13T10:15:16;18.65;;;15.30;;
16179;SDS011;8196;49.428;10.906;2022-10-13T10:17:48;21.90;;;17.13;;
16179;SDS011;8196;49.428;10.906;2022-10-13T10:20:30;21.35;;;16.42;;
16179;SDS011;8196;49.428;10.906;2022-10-13T10:23:05;19.65;;;15.82;;
16179;SDS011;8196;49.428;10.906;2022-10-13T10:28:11;18.30;;;15.63;;
16179;SDS011;8196;49.428;10.906;2022-10-13T10:30:43;19.55;;;15.55;;
16179;SDS011;8196;49.428;10.906;2022-10-13T10:33:17;20.95;;;15.38;;
16179;SDS011;8196;49.428;10.906;2022-10-13T10:35:47;22.47;;;17.00;;
16179;SDS011;8196;49.428;10.906;2022-10-13T10:40:48;20.75;;;16.38;;
16179;SDS011;8196;49.428;10.906;2022-10-13T10:45:44;19.90;;;16.17;;
16179;SDS011;8196;49.428;10.906;2022-10-13T10:48:17;21.02;;;17.40;;
16179;SDS011;8196;49.428;10.906;2022-10-13T10:50:45;20.02;;;16.35;;
16179;SDS011;8196;49.428;10.906;2022-10-13T10:53:15;19.85;;;15.85;;
16179;SDS011;8196;49.428;10.906;2022-10-13T10:58:19;19.25;;;15.73;;
16179;SDS011;8196;49.428;10.906;2022-10-13T11:06:03;18.08;;;14.48;;
16179;SDS011;8196;49.428;10.906;2022-10-13T11:08:39;18.25;;;13.85;;
16179;SDS011;8196;49.428;10.906;2022-10-13T11:11:27;17.85;;;14.55;;
16179;SDS011;8196;49.428;10.906;2022-10-13T11:16:38;15.48;;;13.25;;
16179;SDS011;8196;49.428;10.906;2022-10-13T11:32:40;14.45;;;12.63;;
16179;SDS011;8196;49.428;10.906;2022-10-13T11:34:59;17.30;;;13.48;;
16179;SDS011;8196;49.428;10.906;2022-10-13T11:37:31;16.80;;;12.87;;
16179;SDS011;8196;49.428;10.906;2022-10-13T11:40:09;15.57;;;12.98;;
16179;SDS011;8196;49.428;10.906;2022-10-13T11:53:16;14.52;;;13.00;;
16179;SDS011;8196;49.428;10.906;2022-10-13T12:00:47;17.23;;;13.68;;
16179;SDS011;8196;49.428;10.906;2022-10-13T12:03:24;17.37;;;13.43;;
16179;SDS011;8196;49.428;10.906;2022-10-13T12:05:52;16.67;;;13.82;;
16179;SDS011;8196;49.428;10.906;2022-10-13T12:08:19;17.08;;;14.30;;
16179;SDS011;8196;49.428;10.906;2022-10-13T12:10:50;17.95;;;14.70;;
16179;SDS011;8196;49.428;10.906;2022-10-13T12:13:22;16.17;;;13.37;;
16179;SDS011;8196;49.428;10.906;2022-10-13T12:15:55;15.85;;;13.93;;
16179;SDS011;8196;49.428;10.906;2022-10-13T12:18:26;15.52;;;13.70;;
16179;SDS011;8196;49.428;10.906;2022-10-13T12:20:54;16.70;;;14.57;;
16179;SDS011;8196;49.428;10.906;2022-10-13T12:23:21;18.75;;;14.80;;
16179;SDS011;8196;49.428;10.906;2022-10-13T12:25:49;17.55;;;14.77;;
16179;SDS011;8196;49.428;10.906;2022-10-13T12:28:22;17.50;;;15.02;;
16179;SDS011;8196;49.428;10.906;2022-10-13T12:30:52;20.75;;;14.23;;
16179;SDS011;8196;49.428;10.906;2022-10-13T12:33:25;17.23;;;13.98;;
16179;SDS011;8196;49.428;10.906;2022-10-13T12:35:52;17.30;;;14.35;;
16179;SDS011;8196;49.428;10.906;2022-10-13T12:38:20;15.83;;;13.30;;
16179;SDS011;8196;49.428;10.906;2022-10-13T12:40:48;15.93;;;13.30;;
16179;SDS011;8196;49.428;10.906;2022-10-13T12:43:17;14.97;;;12.67;;
16179;SDS011;8196;49.428;10.906;2022-10-13T12:45:44;18.85;;;14.05;;
16179;SDS011;8196;49.428;10.906;2022-10-13T12:51:07;19.10;;;14.30;;
16179;SDS011;8196;49.428;10.906;2022-10-13T12:53:35;16.90;;;13.20;;
16179;SDS011;8196;49.428;10.906;2022-10-13T12:56:04;18.50;;;13.63;;
16179;SDS011;8196;49.428;10.906;2022-10-13T12:58:32;15.50;;;12.52;;
16179;SDS011;8196;49.428;10.906;2022-10-13T13:01:05;15.57;;;12.70;;
16179;SDS011;8196;49.428;10.906;2022-10-13T13:03:33;15.23;;;12.53;;
16179;SDS011;8196;49.428;10.906;2022-10-13T13:06:06;14.88;;;12.05;;
16179;SDS011;8196;49.428;10.906;2022-10-13T13:08:33;15.13;;;12.00;;
16179;SDS011;8196;49.428;10.906;2022-10-13T13:11:02;16.40;;;11.93;;
16179;SDS011;8196;49.428;10.906;2022-10-13T13:13:30;14.45;;;11.73;;
16179;SDS011;8196;49.428;10.906;2022-10-13T13:16:14;13.95;;;12.27;;
16179;SDS011;8196;49.428;10.906;2022-10-13T13:18:42;16.08;;;12.65;;
16179;SDS011;8196;49.428;10.906;2022-10-13T13:21:10;15.13;;;11.95;;
16179;SDS011;8196;49.428;10.906;2022-10-13T13:23:38;15.52;;;12.57;;
16179;SDS011;8196;49.428;10.906;2022-10-13T13:26:10;13.95;;;11.35;;
16179;SDS011;8196;49.428;10.906;2022-10-13T13:28:39;14.18;;;11.77;;
16179;SDS011;8196;49.428;10.906;2022-10-13T13:31:09;14.77;;;11.02;;
16179;SDS011;8196;49.428;10.906;2022-10-13T13:33:36;13.87;;;11.97;;
16179;SDS011;8196;49.428;10.906;2022-10-13T13:36:04;15.13;;;11.45;;
16179;SDS011;8196;49.428;10.906;2022-10-13T13:38:31;14.38;;;11.07;;
16179;SDS011;8196;49.428;10.906;2022-10-13T13:40:58;13.73;;;11.27;;
16179;SDS011;8196;49.428;10.906;2022-10-13T13:43:29;11.90;;;10.33;;
16179;SDS011;8196;49.428;10.906;2022-10-13T13:45:56;13.38;;;11.30;;
16179;SDS011;8196;49.428;10.906;2022-10-13T13:48:23;12.38;;;10.43;;
16179;SDS011;8196;49.428;10.906;2022-10-13T13:50:51;13.27;;;11.23;;
16179;SDS011;8196;49.428;10.906;2022-10-13T13:53:18;14.10;;;11.30;;
16179;SDS011;8196;49.428;10.906;2022-10-13T13:55:45;12.97;;;11.03;;
16179;SDS011;8196;49.428;10.906;2022-10-13T14:00:40;13.65;;;10.90;;
16179;SDS011;8196;49.428;10.906;2022-10-13T14:03:07;13.75;;;11.35;;
16179;SDS011;8196;49.428;10.906;2022-10-13T14:05:37;15.10;;;10.55;;
16179;SDS011;8196;49.428;10.906;2022-10-13T14:08:05;13.10;;;10.52;;
16179;SDS011;8196;49.428;10.906;2022-10-13T14:10:32;15.00;;;10.95;;
16179;SDS011;8196;49.428;10.906;2022-10-13T14:12:59;13.52;;;10.63;;
16179;SDS011;8196;49.428;10.906;2022-10-13T14:15:27;13.30;;;10.98;;
16179;SDS011;8196;49.428;10.906;2022-10-13T14:17:55;16.10;;;10.55;;
16179;SDS011;8196;49.428;10.906;2022-10-13T14:20:22;11.30;;;9.98;;
16179;SDS011;8196;49.428;10.906;2022-10-13T14:22:49;13.00;;;10.43;;
16179;SDS011;8196;49.428;10.906;2022-10-13T14:25:16;13.77;;;10.63;;
16179;SDS011;8196;49.428;10.906;2022-10-13T14:27:43;18.30;;;15.00;;
16179;SDS011;8196;49.428;10.906;2022-10-13T14:30:11;12.90;;;10.43;;
16179;SDS011;8196;49.428;10.906;2022-10-13T14:32:38;13.32;;;10.48;;
16179;SDS011;8196;49.428;10.906;2022-10-13T14:35:05;17.92;;;13.70;;
16179;SDS011;8196;49.428;10.906;2022-10-13T14:37:32;14.50;;;11.10;;
16179;SDS011;8196;49.428;10.906;2022-10-13T14:40:00;14.57;;;12.15;;
16179;SDS011;8196;49.428;10.906;2022-10-13T14:42:27;14.95;;;11.85;;
16179;SDS011;8196;49.428;10.906;2022-10-13T14:44:54;13.30;;;10.50;;
16179;SDS011;8196;49.428;10.906;2022-10-13T14:47:21;12.48;;;9.30;;
16179;SDS011;8196;49.428;10.906;2022-10-13T14:49:48;9.93;;;8.52;;
16179;SDS011;8196;49.428;10.906;2022-10-13T14:52:16;11.50;;;9.13;;
16179;SDS011;8196;49.428;10.906;2022-10-13T14:54:43;12.32;;;8.73;;
16179;SDS011;8196;49.428;10.906;2022-10-13T14:57:10;11.30;;;8.60;;
16179;SDS011;8196;49.428;10.906;2022-10-13T14:59:41;12.40;;;8.95;;
16179;SDS011;8196;49.428;10.906;2022-10-13T15:02:09;11.13;;;8.80;;
16179;SDS011;8196;49.428;10.906;2022-10-13T15:04:36;13.52;;;9.20;;
16179;SDS011;8196;49.428;10.906;2022-10-13T15:07:04;12.00;;;8.77;;
16179;SDS011;8196;49.428;10.906;2022-10-13T15:09:32;10.98;;;8.10;;
16179;SDS011;8196;49.428;10.906;2022-10-13T15:12:18;10.77;;;7.80;;
16179;SDS011;8196;49.428;10.906;2022-10-13T15:14:46;12.47;;;7.90;;
16179;SDS011;8196;49.428;10.906;2022-10-13T15:17:13;13.27;;;8.75;;
16179;SDS011;8196;49.428;10.906;2022-10-13T15:19:40;9.57;;;7.63;;
16179;SDS011;8196;49.428;10.906;2022-10-13T15:22:07;10.70;;;7.70;;
16179;SDS011;8196;49.428;10.906;2022-10-13T15:24:34;10.50;;;7.18;;
16179;SDS011;8196;49.428;10.906;2022-10-13T15:27:01;11.47;;;7.70;;
16179;SDS011;8196;49.428;10.906;2022-10-13T15:29:29;11.05;;;7.40;;
16179;SDS011;8196;49.428;10.906;2022-10-13T15:32:05;11.30;;;7.82;;
16179;SDS011;8196;49.428;10.906;2022-10-13T15:34:33;10.93;;;7.75;;
16179;SDS011;8196;49.428;10.906;2022-10-13T15:37:00;12.05;;;8.02;;
16179;SDS011;8196;49.428;10.906;2022-10-13T15:39:27;10.77;;;7.70;;
16179;SDS011;8196;49.428;10.906;2022-10-13T15:41:54;11.30;;;8.40;;
16179;SDS011;8196;49.428;10.906;2022-10-13T15:44:23;11.20;;;8.63;;
16179;SDS011;8196;49.428;10.906;2022-10-13T15:46:51;12.40;;;8.82;;
16179;SDS011;8196;49.428;10.906;2022-10-13T15:49:34;12.07;;;8.80;;
16179;SDS011;8196;49.428;10.906;2022-10-13T15:52:02;12.00;;;8.50;;
16179;SDS011;8196;49.428;10.906;2022-10-13T15:54:30;10.25;;;7.60;;